Time;durP1;ratioP1;P1;durP2;ratioP2;P2;SDS_P1;SDS_P2;PMS_P1;PMS_P2;Temp;Humidity;BMP_temperature;BMP_pressure;BME280_temperature;BME280_humidity;BME280_pressure;Samples;Min_cycle;Max_cycle;Signal;HPM_P1;HPM_P2
2023/10/05 00:01:18;;;;;;;12.60;2.80;;;;;;;;;;5113996;28;20027;-63
2023/10/05 00:03:47;;;;;;;8.00;2.70;;;;;;;;;;5113152;28;20020;-60
2023/10/05 00:06:24;;;;;;;10.53;2.70;;;;;;;;;;5110246;28;20560;-62
2023/10/05 00:08:49;;;;;;;10.77;2.90;;;;;;;;;;5113981;28;20012;-63
2023/10/05 00:11:24;;;;;;;11.70;3.03;;;;;;;;;;5113888;28;20026;-61
2023/10/05 00:13:50;;;;;;;11.83;3.40;;;;;;;;;;5113352;28;20015;-64
2023/10/05 00:16:20;;;;;;;12.23;2.67;;;;;;;;;;5113592;28;20020;-61
2023/10/05 00:18:46;;;;;;;11.37;2.63;;;;;;;;;;5113591;28;20068;-59
2023/10/05 00:21:11;;;;;;;8.73;2.60;;;;;;;;;;5113306;28;20019;-59
2023/10/05 00:23:36;;;;;;;10.53;2.83;;;;;;;;;;5113450;28;20008;-60
2023/10/05 00:26:02;;;;;;;13.20;2.97;;;;;;;;;;5113853;28;20085;-61
2023/10/05 00:28:27;;;;;;;8.90;2.70;;;;;;;;;;5113896;28;20459;-62
2023/10/05 00:30:54;;;;;;;8.90;2.53;;;;;;;;;;5111100;28;20034;-59
2023/10/05 00:33:20;;;;;;;9.10;2.90;;;;;;;;;;5092819;28;20022;-62
2023/10/05 00:35:46;;;;;;;7.80;2.50;;;;;;;;;;5110155;28;20027;-61
2023/10/05 00:38:16;;;;;;;13.03;3.07;;;;;;;;;;5113420;28;20030;-63
2023/10/05 00:41:04;;;;;;;14.98;2.95;;;;;;;;;;5112543;28;20026;-61
2023/10/05 00:43:31;;;;;;;10.53;2.63;;;;;;;;;;5110170;28;20012;-60
2023/10/05 00:45:59;;;;;;;12.03;3.30;;;;;;;;;;5113495;28;20019;-64
2023/10/05 00:48:34;;;;;;;11.35;3.00;;;;;;;;;;5113400;28;20455;-60
2023/10/05 00:51:03;;;;;;;8.17;2.80;;;;;;;;;;5113415;28;20027;-60
2023/10/05 00:53:29;;;;;;;8.82;2.88;;;;;;;;;;5113024;28;20016;-61
2023/10/05 00:56:15;;;;;;;9.73;2.90;;;;;;;;;;5113189;28;20432;-60
2023/10/05 00:58:54;;;;;;;18.23;3.37;;;;;;;;;;5112726;28;20099;-58
2023/10/05 01:04:34;;;;;;;10.03;2.63;;;;;;;;;;5112204;28;20411;-59
2023/10/05 01:07:17;;;;;;;13.73;3.60;;;;;;;;;;5112516;28;20027;-62
2023/10/05 01:09:55;;;;;;;7.50;2.70;;;;;;;;;;5105548;28;20766;-59
2023/10/05 01:12:41;;;;;;;8.10;2.67;;;;;;;;;;5092922;28;20035;-59
2023/10/05 01:15:07;;;;;;;13.00;2.90;;;;;;;;;;5093462;28;20073;-59
2023/10/05 01:17:35;;;;;;;14.87;3.27;;;;;;;;;;5092835;28;20426;-62
2023/10/05 01:20:07;;;;;;;12.67;2.90;;;;;;;;;;5093186;28;20494;-59
2023/10/05 01:22:34;;;;;;;9.03;2.80;;;;;;;;;;5093242;28;20471;-58
2023/10/05 01:25:02;;;;;;;7.67;2.70;;;;;;;;;;5102084;28;20119;-61
2023/10/05 01:27:29;;;;;;;10.63;2.90;;;;;;;;;;5094116;28;20086;-59
2023/10/05 01:29:55;;;;;;;8.00;2.70;;;;;;;;;;5093046;28;20035;-62
2023/10/05 01:32:20;;;;;;;10.03;2.57;;;;;;;;;;5093075;28;20388;-58
2023/10/05 01:34:49;;;;;;;9.38;2.70;;;;;;;;;;5098132;28;20046;-59
2023/10/05 01:37:16;;;;;;;9.82;2.60;;;;;;;;;;5100046;28;20122;-58
2023/10/05 01:39:44;;;;;;;10.70;2.63;;;;;;;;;;5100084;28;20038;-63
2023/10/05 01:42:12;;;;;;;17.40;3.17;;;;;;;;;;5092411;28;20031;-61
2023/10/05 01:44:40;;;;;;;12.33;3.03;;;;;;;;;;5093099;28;20095;-62
2023/10/05 01:47:05;;;;;;;12.07;2.70;;;;;;;;;;5092516;28;20028;-59
2023/10/05 01:49:31;;;;;;;7.47;2.83;;;;;;;;;;5096543;28;20540;-62
2023/10/05 01:51:57;;;;;;;8.97;2.63;;;;;;;;;;5093591;28;20024;-62
2023/10/05 01:54:26;;;;;;;10.57;3.10;;;;;;;;;;5106030;28;20039;-62
2023/10/05 01:56:51;;;;;;;16.67;2.80;;;;;;;;;;5096592;28;20275;-63
2023/10/05 01:59:21;;;;;;;11.80;2.90;;;;;;;;;;5096694;28;20028;-63
2023/10/05 02:01:46;;;;;;;9.60;3.43;;;;;;;;;;5109689;28;20035;-58
2023/10/05 02:04:11;;;;;;;10.23;2.70;;;;;;;;;;5115173;28;20465;-62
2023/10/05 02:06:41;;;;;;;9.27;2.73;;;;;;;;;;5110370;28;20047;-61
2023/10/05 02:09:09;;;;;;;11.23;2.90;;;;;;;;;;5115422;28;20022;-63
2023/10/05 02:11:36;;;;;;;10.13;2.60;;;;;;;;;;5114626;28;20008;-63
2023/10/05 02:14:04;;;;;;;8.10;2.50;;;;;;;;;;5096727;28;20589;-62
2023/10/05 02:16:30;;;;;;;10.10;3.00;;;;;;;;;;5096654;28;20013;-65
2023/10/05 02:18:56;;;;;;;13.47;3.10;;;;;;;;;;5096296;28;20506;-65
2023/10/05 02:21:35;;;;;;;11.13;3.00;;;;;;;;;;5102161;28;20016;-64
2023/10/05 02:24:10;;;;;;;16.13;2.80;;;;;;;;;;5095089;28;20043;-64
2023/10/05 02:26:35;;;;;;;11.13;3.10;;;;;;;;;;5095477;28;20069;-65
2023/10/05 02:29:13;;;;;;;9.73;2.83;;;;;;;;;;5099939;28;20016;-65
2023/10/05 02:31:50;;;;;;;11.17;2.90;;;;;;;;;;5095230;28;20019;-63
2023/10/05 02:34:17;;;;;;;11.50;2.90;;;;;;;;;;5095511;28;20008;-64
2023/10/05 02:36:43;;;;;;;10.73;2.90;;;;;;;;;;5095265;28;20027;-64
2023/10/05 02:39:08;;;;;;;12.03;3.30;;;;;;;;;;5095695;28;20012;-65
2023/10/05 02:41:40;;;;;;;11.50;3.13;;;;;;;;;;5095986;28;20036;-65
2023/10/05 02:44:17;;;;;;;8.88;2.70;;;;;;;;;;5095463;28;20024;-65
2023/10/05 02:46:42;;;;;;;16.80;3.10;;;;;;;;;;5095375;28;20027;-63
2023/10/05 02:49:09;;;;;;;7.10;2.77;;;;;;;;;;5095417;28;20008;-63
2023/10/05 02:51:35;;;;;;;9.47;3.27;;;;;;;;;;5099149;28;20421;-65
2023/10/05 02:54:04;;;;;;;9.98;3.17;;;;;;;;;;5097118;28;20016;-63
2023/10/05 02:56:31;;;;;;;9.33;2.80;;;;;;;;;;5095088;28;20456;-63
2023/10/05 02:59:02;;;;;;;9.00;2.77;;;;;;;;;;5095108;28;20070;-64
2023/10/05 03:01:27;;;;;;;11.35;3.60;;;;;;;;;;5102916;28;20095;-63
2023/10/05 03:03:55;;;;;;;7.80;2.80;;;;;;;;;;5113615;28;20075;-65
2023/10/05 03:06:23;;;;;;;11.83;2.97;;;;;;;;;;5099173;28;20354;-63
2023/10/05 03:08:49;;;;;;;9.97;2.77;;;;;;;;;;5095516;28;20026;-64
2023/10/05 03:11:15;;;;;;;17.43;2.90;;;;;;;;;;5098823;28;20472;-65
2023/10/05 03:13:41;;;;;;;10.30;3.00;;;;;;;;;;5094662;28;20036;-62
2023/10/05 03:16:10;;;;;;;18.10;3.67;;;;;;;;;;5096203;28;20028;-66
2023/10/05 03:18:41;;;;;;;11.33;2.90;;;;;;;;;;5095132;28;20460;-65
2023/10/05 03:21:13;;;;;;;10.80;2.78;;;;;;;;;;5095136;28;20521;-62
2023/10/05 03:23:40;;;;;;;9.57;2.70;;;;;;;;;;5094855;28;20480;-58
2023/10/05 03:26:07;;;;;;;10.67;3.30;;;;;;;;;;5094964;28;20047;-64
2023/10/05 03:28:35;;;;;;;11.80;3.30;;;;;;;;;;5100292;28;20016;-62
2023/10/05 03:31:06;;;;;;;9.50;2.47;;;;;;;;;;5107840;28;20062;-62
2023/10/05 03:33:33;;;;;;;9.75;2.75;;;;;;;;;;5095721;28;20051;-60
2023/10/05 03:36:00;;;;;;;10.80;2.77;;;;;;;;;;5095021;28;20073;-61
2023/10/05 03:38:28;;;;;;;14.03;3.07;;;;;;;;;;5094753;28;20430;-60
2023/10/05 03:40:54;;;;;;;11.40;2.67;;;;;;;;;;5094706;28;20507;-60
2023/10/05 03:43:21;;;;;;;8.70;2.83;;;;;;;;;;5094829;28;20383;-60
2023/10/05 03:45:46;;;;;;;14.00;3.63;;;;;;;;;;5103088;28;20024;-58
2023/10/05 03:48:11;;;;;;;11.70;3.33;;;;;;;;;;5094087;28;20032;-58
2023/10/05 03:50:37;;;;;;;12.13;3.00;;;;;;;;;;5094013;28;20020;-59
2023/10/05 03:53:15;;;;;;;11.27;3.00;;;;;;;;;;5094011;28;20024;-60
2023/10/05 03:55:40;;;;;;;10.87;3.60;;;;;;;;;;5093592;28;20028;-61
2023/10/05 03:58:07;;;;;;;16.27;3.97;;;;;;;;;;5094248;28;20116;-58
2023/10/05 04:00:35;;;;;;;12.00;3.40;;;;;;;;;;5093984;28;20387;-58
2023/10/05 04:03:01;;;;;;;11.90;3.30;;;;;;;;;;5097191;28;20015;-59
2023/10/05 04:05:27;;;;;;;10.23;3.23;;;;;;;;;;5110205;28;20112;-62
2023/10/05 04:07:54;;;;;;;13.07;3.33;;;;;;;;;;5113751;28;20027;-62
2023/10/05 04:10:23;;;;;;;11.23;3.33;;;;;;;;;;5112875;28;20026;-59
2023/10/05 04:12:49;;;;;;;14.10;3.80;;;;;;;;;;5113542;28;20023;-60
2023/10/05 04:15:18;;;;;;;16.07;3.97;;;;;;;;;;5112452;28;20512;-59
2023/10/05 04:17:43;;;;;;;12.67;3.83;;;;;;;;;;5113046;28;20089;-59
2023/10/05 04:20:19;;;;;;;13.10;4.00;;;;;;;;;;5113205;28;20468;-59
2023/10/05 04:22:46;;;;;;;14.10;3.93;;;;;;;;;;5113538;28;20518;-62
2023/10/05 04:25:13;;;;;;;8.30;3.43;;;;;;;;;;5113625;28;20468;-63
2023/10/05 04:27:38;;;;;;;11.17;3.77;;;;;;;;;;5112421;28;20023;-61
2023/10/05 04:30:04;;;;;;;11.63;3.73;;;;;;;;;;5113577;27;20073;-64
2023/10/05 04:32:29;;;;;;;14.73;3.80;;;;;;;;;;5112630;28;20084;-64
2023/10/05 04:34:56;;;;;;;12.30;3.90;;;;;;;;;;5112655;28;20043;-64
2023/10/05 04:37:21;;;;;;;14.47;3.93;;;;;;;;;;5094260;28;20205;-64
2023/10/05 04:39:47;;;;;;;15.33;4.07;;;;;;;;;;5112335;28;20030;-65
2023/10/05 04:42:15;;;;;;;13.73;3.77;;;;;;;;;;5112019;28;20015;-65
2023/10/05 04:44:41;;;;;;;13.30;3.50;;;;;;;;;;5112823;28;20027;-64
2023/10/05 04:47:06;;;;;;;11.07;3.70;;;;;;;;;;5113043;28;20026;-63
2023/10/05 04:49:32;;;;;;;12.23;4.00;;;;;;;;;;5112991;28;20030;-64
2023/10/05 04:51:59;;;;;;;12.73;3.40;;;;;;;;;;5112348;28;20050;-65
2023/10/05 04:54:27;;;;;;;14.73;4.50;;;;;;;;;;5111981;28;20104;-65
2023/10/05 05:02:20;;;;;;;11.82;3.70;;;;;;;;;;5041455;28;20446;-64
2023/10/05 05:07:12;;;;;;;17.23;4.37;;;;;;;;;;5047911;28;20540;-63
2023/10/05 05:09:41;;;;;;;9.30;3.20;;;;;;;;;;5044380;28;20024;-63
2023/10/05 05:12:16;;;;;;;13.53;4.27;;;;;;;;;;5031885;28;20545;-63
2023/10/05 05:14:41;;;;;;;14.33;4.10;;;;;;;;;;5047549;28;20029;-64
2023/10/05 05:17:07;;;;;;;10.83;3.47;;;;;;;;;;5030711;28;20021;-63
2023/10/05 05:19:34;;;;;;;12.87;4.13;;;;;;;;;;5030795;28;20413;-63
2023/10/05 05:22:02;;;;;;;12.17;4.00;;;;;;;;;;5030314;28;20016;-65
2023/10/05 05:24:30;;;;;;;14.10;4.00;;;;;;;;;;5037161;28;20025;-64
2023/10/05 05:27:00;;;;;;;11.80;4.03;;;;;;;;;;5031694;28;20026;-65
2023/10/05 05:29:26;;;;;;;12.03;4.20;;;;;;;;;;5042297;28;20071;-64
2023/10/05 05:31:51;;;;;;;11.17;3.03;;;;;;;;;;5037561;28;20441;-64
2023/10/05 05:34:16;;;;;;;17.17;3.57;;;;;;;;;;5034659;28;20083;-64
2023/10/05 05:36:42;;;;;;;12.40;3.70;;;;;;;;;;5034764;28;20075;-65
2023/10/05 05:39:07;;;;;;;11.97;3.80;;;;;;;;;;5062289;28;20028;-63
2023/10/05 05:41:36;;;;;;;11.27;3.60;;;;;;;;;;5076306;28;20096;-63
2023/10/05 05:44:03;;;;;;;11.52;3.60;;;;;;;;;;5076812;28;20461;-62
2023/10/05 05:46:28;;;;;;;13.20;3.80;;;;;;;;;;5093694;28;20501;-65
2023/10/05 05:48:53;;;;;;;11.03;3.33;;;;;;;;;;5083478;28;20099;-65
2023/10/05 05:51:22;;;;;;;10.53;4.13;;;;;;;;;;5076839;28;20028;-64
2023/10/05 05:53:48;;;;;;;11.43;3.70;;;;;;;;;;5094931;28;20448;-63
2023/10/05 05:56:19;;;;;;;9.03;3.60;;;;;;;;;;5094809;28;20027;-63
2023/10/05 05:58:45;;;;;;;14.15;3.75;;;;;;;;;;5095565;28;20448;-65
2023/10/05 06:01:14;;;;;;;17.60;4.37;;;;;;;;;;5095523;28;20456;-63
2023/10/05 06:03:39;;;;;;;11.57;3.83;;;;;;;;;;5096572;28;20012;-64
2023/10/05 06:06:05;;;;;;;13.30;3.60;;;;;;;;;;5115517;28;20065;-64
2023/10/05 06:08:30;;;;;;;14.23;4.25;;;;;;;;;;5116287;28;20418;-63
2023/10/05 06:10:56;;;;;;;15.10;4.77;;;;;;;;;;5116155;28;20020;-63
2023/10/05 06:13:22;;;;;;;15.60;4.10;;;;;;;;;;5116067;28;20023;-63
2023/10/05 06:15:47;;;;;;;13.30;3.88;;;;;;;;;;5115961;28;20012;-63
2023/10/05 06:18:13;;;;;;;12.85;3.90;;;;;;;;;;5115625;28;20090;-63
2023/10/05 06:20:38;;;;;;;11.50;3.40;;;;;;;;;;5115856;28;20114;-68
2023/10/05 06:23:05;;;;;;;14.15;3.65;;;;;;;;;;5116520;28;20016;-64
2023/10/05 06:25:31;;;;;;;14.20;3.72;;;;;;;;;;5113369;28;20015;-66
2023/10/05 06:27:57;;;;;;;15.18;3.72;;;;;;;;;;5114876;27;20425;-64
2023/10/05 06:30:22;;;;;;;13.30;3.00;;;;;;;;;;5114163;28;20016;-62
2023/10/05 06:32:48;;;;;;;12.68;3.10;;;;;;;;;;5115527;28;20022;-62
2023/10/05 06:35:13;;;;;;;12.30;3.05;;;;;;;;;;5114774;28;20031;-64
2023/10/05 06:37:41;;;;;;;8.98;3.20;;;;;;;;;;5114021;27;20020;-63
2023/10/05 06:40:12;;;;;;;9.55;2.72;;;;;;;;;;5115119;28;20016;-65
2023/10/05 06:42:39;;;;;;;8.77;2.83;;;;;;;;;;5115914;28;20039;-63
2023/10/05 06:45:07;;;;;;;11.45;3.20;;;;;;;;;;5115653;28;20011;-64
2023/10/05 06:47:36;;;;;;;9.13;2.90;;;;;;;;;;5115404;28;20062;-63
2023/10/05 06:50:11;;;;;;;9.82;3.35;;;;;;;;;;5115456;28;20039;-61
2023/10/05 06:52:39;;;;;;;8.77;2.88;;;;;;;;;;5114886;28;20020;-59
2023/10/05 06:55:08;;;;;;;10.35;2.90;;;;;;;;;;5114940;28;20020;-59
2023/10/05 06:57:35;;;;;;;12.63;3.22;;;;;;;;;;5111714;28;20016;-59
2023/10/05 07:00:02;;;;;;;8.23;2.53;;;;;;;;;;5115438;28;20353;-61
2023/10/05 07:02:27;;;;;;;8.25;2.80;;;;;;;;;;5114979;28;20019;-58
2023/10/05 07:04:52;;;;;;;9.98;2.85;;;;;;;;;;5114467;28;20119;-60
2023/10/05 07:07:19;;;;;;;10.70;2.75;;;;;;;;;;5101818;28;20020;-59
2023/10/05 07:09:44;;;;;;;10.68;3.03;;;;;;;;;;5094923;28;20016;-59
2023/10/05 07:12:09;;;;;;;11.90;3.28;;;;;;;;;;5094949;28;20227;-59
2023/10/05 07:14:36;;;;;;;12.98;2.90;;;;;;;;;;5095537;28;20038;-59
2023/10/05 07:17:01;;;;;;;10.85;3.03;;;;;;;;;;5095426;28;20024;-60
2023/10/05 07:19:26;;;;;;;13.40;3.33;;;;;;;;;;5095146;28;20368;-58
2023/10/05 07:21:51;;;;;;;11.13;2.97;;;;;;;;;;5095224;28;20055;-58
2023/10/05 07:24:17;;;;;;;14.50;3.30;;;;;;;;;;5094867;28;20448;-59
2023/10/05 07:26:42;;;;;;;11.30;3.60;;;;;;;;;;5112037;28;20065;-58
2023/10/05 07:29:08;;;;;;;13.38;3.20;;;;;;;;;;5113669;28;20020;-57
2023/10/05 07:31:35;;;;;;;12.82;2.92;;;;;;;;;;5099111;28;20031;-57
2023/10/05 07:34:00;;;;;;;11.63;2.90;;;;;;;;;;5094863;28;20113;-58
2023/10/05 07:36:26;;;;;;;9.32;2.58;;;;;;;;;;5094698;28;20103;-57
2023/10/05 07:38:51;;;;;;;10.60;2.80;;;;;;;;;;5094024;28;20023;-57
2023/10/05 07:41:16;;;;;;;9.85;2.50;;;;;;;;;;5094659;28;20038;-58
2023/10/05 07:43:41;;;;;;;11.40;2.53;;;;;;;;;;5094527;28;20031;-57
2023/10/05 07:46:07;;;;;;;10.30;2.70;;;;;;;;;;5094881;28;20020;-59
2023/10/05 07:48:32;;;;;;;8.68;2.33;;;;;;;;;;5094145;28;20087;-59
2023/10/05 07:50:58;;;;;;;11.77;3.03;;;;;;;;;;5094038;28;20073;-57
2023/10/05 07:53:25;;;;;;;8.38;2.72;;;;;;;;;;5102686;28;20353;-59
2023/10/05 07:55:50;;;;;;;9.32;1.90;;;;;;;;;;5113384;28;20070;-59
2023/10/05 07:58:15;;;;;;;10.70;2.67;;;;;;;;;;5113772;28;20424;-57
2023/10/05 08:00:42;;;;;;;12.57;2.58;;;;;;;;;;5109318;28;20495;-60
2023/10/05 08:03:07;;;;;;;12.95;2.50;;;;;;;;;;5101360;28;20460;-59
2023/10/05 08:05:32;;;;;;;12.23;2.70;;;;;;;;;;5112684;27;20043;-57
2023/10/05 08:07:58;;;;;;;14.48;2.83;;;;;;;;;;5102401;28;20020;-58
2023/10/05 08:10:23;;;;;;;12.82;2.95;;;;;;;;;;5094488;28;20059;-58
2023/10/05 08:12:48;;;;;;;9.27;2.42;;;;;;;;;;5094325;28;20544;-59
2023/10/05 08:15:14;;;;;;;10.77;2.40;;;;;;;;;;5094261;28;20028;-59
2023/10/05 08:17:39;;;;;;;9.57;2.38;;;;;;;;;;5094181;28;20111;-58
2023/10/05 08:20:06;;;;;;;10.65;2.97;;;;;;;;;;5108405;28;20023;-59
2023/10/05 08:22:31;;;;;;;11.70;2.70;;;;;;;;;;5112715;28;20528;-60
2023/10/05 08:25:00;;;;;;;10.93;2.60;;;;;;;;;;5105824;28;20090;-59
2023/10/05 08:27:25;;;;;;;13.73;3.13;;;;;;;;;;5113399;28;20022;-60
2023/10/05 08:29:51;;;;;;;8.73;2.30;;;;;;;;;;5111774;28;20451;-59
2023/10/05 08:32:16;;;;;;;10.68;2.83;;;;;;;;;;5094061;28;20016;-59
2023/10/05 08:34:42;;;;;;;9.07;2.53;;;;;;;;;;5094050;28;20031;-61
2023/10/05 08:37:08;;;;;;;7.53;1.98;;;;;;;;;;5093382;28;20020;-58
2023/10/05 08:39:37;;;;;;;8.55;2.92;;;;;;;;;;5093168;28;20468;-61
2023/10/05 08:42:05;;;;;;;11.13;2.40;;;;;;;;;;5093103;28;20020;-59
2023/10/05 08:44:36;;;;;;;17.45;4.35;;;;;;;;;;5093900;28;20103;-60
2023/10/05 08:47:05;;;;;;;16.35;3.70;;;;;;;;;;5093793;28;20040;-59
2023/10/05 08:49:33;;;;;;;6.85;1.83;;;;;;;;;;5093343;28;20429;-60
2023/10/05 08:51:59;;;;;;;10.20;2.35;;;;;;;;;;5093455;28;20031;-59
2023/10/05 08:54:28;;;;;;;10.02;2.60;;;;;;;;;;5101582;28;20372;-60
2023/10/05 08:56:53;;;;;;;8.23;2.58;;;;;;;;;;5112445;28;20391;-59
2023/10/05 08:59:19;;;;;;;10.95;2.47;;;;;;;;;;5111699;28;20026;-58
2023/10/05 09:01:54;;;;;;;8.93;2.50;;;;;;;;;;5108241;28;20406;-58
2023/10/05 09:06:47;;;;;;;10.70;2.78;;;;;;;;;;5113426;28;20422;-59
2023/10/05 09:09:14;;;;;;;11.77;2.60;;;;;;;;;;5112893;28;20023;-58
2023/10/05 09:11:39;;;;;;;7.07;2.20;;;;;;;;;;5113245;28;20463;-59
2023/10/05 09:14:12;;;;;;;7.10;2.35;;;;;;;;;;5112736;28;20020;-60
2023/10/05 09:16:41;;;;;;;9.88;2.60;;;;;;;;;;5112777;28;20012;-59
2023/10/05 09:19:07;;;;;;;14.13;2.72;;;;;;;;;;5108778;28;20015;-59
2023/10/05 09:21:54;;;;;;;13.10;2.80;;;;;;;;;;5112794;28;20139;-59
2023/10/05 09:24:20;;;;;;;10.95;2.70;;;;;;;;;;5113226;28;20016;-60
2023/10/05 09:26:49;;;;;;;13.48;2.83;;;;;;;;;;5113052;28;20058;-58
2023/10/05 09:29:28;;;;;;;16.77;2.90;;;;;;;;;;5112916;28;20482;-59
2023/10/05 09:31:54;;;;;;;11.20;3.45;;;;;;;;;;5112355;28;20023;-61
2023/10/05 09:34:34;;;;;;;9.77;2.50;;;;;;;;;;5112121;28;20012;-59
2023/10/05 09:37:05;;;;;;;11.70;2.73;;;;;;;;;;5112710;28;20011;-58
2023/10/05 09:39:44;;;;;;;10.70;2.42;;;;;;;;;;5112939;28;20414;-60
2023/10/05 09:42:22;;;;;;;8.35;2.60;;;;;;;;;;5112907;28;20487;-59
2023/10/05 09:44:52;;;;;;;11.18;2.45;;;;;;;;;;5112828;28;20016;-59
2023/10/05 09:47:18;;;;;;;12.43;2.47;;;;;;;;;;5112972;28;20094;-59
2023/10/05 09:49:45;;;;;;;12.30;2.70;;;;;;;;;;5112003;28;20015;-60
2023/10/05 09:52:11;;;;;;;10.50;2.50;;;;;;;;;;5112390;28;20012;-58
2023/10/05 09:54:37;;;;;;;10.00;2.92;;;;;;;;;;5112475;28;20019;-59
2023/10/05 09:57:10;;;;;;;14.02;3.05;;;;;;;;;;5112756;28;20035;-58
2023/10/05 09:59:37;;;;;;;11.43;2.33;;;;;;;;;;5112728;28;20464;-61
2023/10/05 10:02:03;;;;;;;11.52;2.85;;;;;;;;;;5115466;28;20012;-58
2023/10/05 10:04:35;;;;;;;8.77;2.40;;;;;;;;;;5112236;28;20546;-61
2023/10/05 10:07:03;;;;;;;15.05;3.05;;;;;;;;;;5111893;28;20012;-62
2023/10/05 10:09:28;;;;;;;11.00;2.40;;;;;;;;;;5111961;28;20022;-60
2023/10/05 10:11:57;;;;;;;9.40;2.67;;;;;;;;;;5112295;28;20016;-60
2023/10/05 10:14:26;;;;;;;9.50;2.97;;;;;;;;;;5113867;28;20020;-61
2023/10/05 10:17:00;;;;;;;15.15;3.05;;;;;;;;;;5116285;28;20008;-60
2023/10/05 10:19:25;;;;;;;11.80;2.42;;;;;;;;;;5116271;28;20015;-59
2023/10/05 10:22:00;;;;;;;10.20;2.55;;;;;;;;;;5115970;28;20016;-60
2023/10/05 10:24:28;;;;;;;10.20;2.15;;;;;;;;;;5116110;28;20023;-60
2023/10/05 10:27:11;;;;;;;11.32;2.40;;;;;;;;;;5114912;28;20044;-60
2023/10/05 10:29:46;;;;;;;13.57;2.53;;;;;;;;;;5114339;28;20115;-60
2023/10/05 10:32:22;;;;;;;9.73;2.78;;;;;;;;;;5116133;28;20016;-59
2023/10/05 10:34:52;;;;;;;7.78;2.10;;;;;;;;;;5114902;28;20464;-58
2023/10/05 10:37:36;;;;;;;15.70;2.63;;;;;;;;;;5115716;28;20019;-60
2023/10/05 10:40:05;;;;;;;9.65;1.98;;;;;;;;;;5115153;28;20495;-60
2023/10/05 10:42:53;;;;;;;11.63;2.45;;;;;;;;;;5115891;28;20565;-59
2023/10/05 10:45:32;;;;;;;9.25;2.88;;;;;;;;;;5115284;28;20016;-59
2023/10/05 10:47:58;;;;;;;6.70;2.08;;;;;;;;;;5115603;28;20463;-58
2023/10/05 10:50:29;;;;;;;15.52;2.90;;;;;;;;;;5115357;28;20072;-59
2023/10/05 10:52:56;;;;;;;11.38;2.50;;;;;;;;;;5115097;28;20045;-58
2023/10/05 10:55:26;;;;;;;10.93;2.30;;;;;;;;;;5115653;28;20382;-60
2023/10/05 10:57:54;;;;;;;8.77;2.83;;;;;;;;;;5115393;28;20110;-59
2023/10/05 11:03:11;;;;;;;5.85;1.88;;;;;;;;;;5114959;28;20023;-60
2023/10/05 11:05:40;;;;;;;12.93;2.70;;;;;;;;;;5114690;28;20035;-59
2023/10/05 11:08:09;;;;;;;7.47;2.17;;;;;;;;;;5115392;28;20394;-58
2023/10/05 11:10:34;;;;;;;10.30;3.03;;;;;;;;;;5114939;28;20012;-58
2023/10/05 11:13:14;;;;;;;9.48;2.53;;;;;;;;;;5114943;28;20024;-59
2023/10/05 11:16:09;;;;;;;10.40;2.30;;;;;;;;;;5115052;28;20154;-59
2023/10/05 11:18:35;;;;;;;6.40;2.20;;;;;;;;;;5112481;28;20038;-59
2023/10/05 11:21:12;;;;;;;9.00;2.35;;;;;;;;;;5114734;28;20456;-59
2023/10/05 11:23:56;;;;;;;8.73;2.35;;;;;;;;;;5114687;28;20353;-61
2023/10/05 11:26:56;;;;;;;9.45;2.20;;;;;;;;;;5113747;28;20031;-59
2023/10/05 11:29:28;;;;;;;10.18;2.45;;;;;;;;;;5114290;28;20055;-60
2023/10/05 11:31:54;;;;;;;10.57;2.38;;;;;;;;;;5114796;28;20022;-64
2023/10/05 11:34:22;;;;;;;12.02;2.22;;;;;;;;;;5114072;28;20016;-62
2023/10/05 11:36:52;;;;;;;8.75;2.20;;;;;;;;;;5094212;28;20502;-62
2023/10/05 11:39:27;;;;;;;10.23;2.42;;;;;;;;;;5114034;28;20447;-63
2023/10/05 11:41:55;;;;;;;9.25;2.47;;;;;;;;;;5114714;28;20482;-63
2023/10/05 11:44:20;;;;;;;8.48;2.38;;;;;;;;;;5114857;28;20460;-64
2023/10/05 11:46:46;;;;;;;15.63;2.75;;;;;;;;;;5114087;28;20090;-63
2023/10/05 11:49:13;;;;;;;10.27;2.85;;;;;;;;;;5114300;28;20052;-63
2023/10/05 11:51:41;;;;;;;14.23;3.08;;;;;;;;;;5114659;28;20495;-63
2023/10/05 11:54:09;;;;;;;13.32;3.10;;;;;;;;;;5110356;28;20015;-63
2023/10/05 11:56:35;;;;;;;12.25;3.30;;;;;;;;;;5114065;28;20037;-64
2023/10/05 11:59:00;;;;;;;10.45;2.80;;;;;;;;;;5113882;28;20031;-65
2023/10/05 12:01:31;;;;;;;11.88;3.00;;;;;;;;;;5114278;28;20019;-64
2023/10/05 12:03:56;;;;;;;9.32;2.70;;;;;;;;;;5113743;27;20035;-64
2023/10/05 12:06:25;;;;;;;10.18;3.35;;;;;;;;;;5114181;28;20016;-65
2023/10/05 12:09:00;;;;;;;13.60;2.70;;;;;;;;;;5113809;28;20015;-63
2023/10/05 12:11:25;;;;;;;10.30;2.70;;;;;;;;;;5113428;28;20099;-65
2023/10/05 12:13:56;;;;;;;12.15;2.70;;;;;;;;;;5113740;28;20110;-65
2023/10/05 12:16:22;;;;;;;11.05;3.03;;;;;;;;;;5110468;28;20023;-64
2023/10/05 12:18:48;;;;;;;7.50;2.90;;;;;;;;;;5113733;28;20073;-64
2023/10/05 12:21:13;;;;;;;6.68;1.90;;;;;;;;;;5113834;28;20019;-62
2023/10/05 12:23:38;;;;;;;8.23;2.28;;;;;;;;;;5113926;28;20068;-63
2023/10/05 12:26:04;;;;;;;10.48;2.67;;;;;;;;;;5113583;28;20028;-63
2023/10/05 12:28:32;;;;;;;12.30;2.65;;;;;;;;;;5113535;28;20007;-62
2023/10/05 12:30:58;;;;;;;9.88;3.22;;;;;;;;;;5112961;28;20023;-63
2023/10/05 12:33:23;;;;;;;11.25;3.50;;;;;;;;;;5113523;28;20065;-63
2023/10/05 12:35:52;;;;;;;9.07;2.83;;;;;;;;;;5113126;28;20016;-62
2023/10/05 12:38:18;;;;;;;13.18;3.50;;;;;;;;;;5112806;28;20388;-62
2023/10/05 12:40:47;;;;;;;16.13;3.75;;;;;;;;;;5113561;28;20523;-63
2023/10/05 12:43:15;;;;;;;13.00;3.25;;;;;;;;;;5113737;28;20467;-61
2023/10/05 12:45:42;;;;;;;11.95;3.80;;;;;;;;;;5113551;28;20069;-61
2023/10/05 12:48:07;;;;;;;11.90;3.60;;;;;;;;;;5112946;28;20039;-58
2023/10/05 12:50:33;;;;;;;9.55;3.35;;;;;;;;;;5111953;27;20080;-62
2023/10/05 12:52:58;;;;;;;8.73;3.00;;;;;;;;;;5112830;28;20476;-57
2023/10/05 12:55:26;;;;;;;10.60;3.17;;;;;;;;;;5113067;28;20016;-60
2023/10/05 12:57:52;;;;;;;8.68;2.78;;;;;;;;;;5112936;28;20389;-59
2023/10/05 13:00:40;;;;;;;13.68;3.40;;;;;;;;;;5116858;27;20353;-60
2023/10/05 13:03:05;;;;;;;13.57;3.55;;;;;;;;;;5111553;28;20459;-64
2023/10/05 13:05:31;;;;;;;11.10;3.22;;;;;;;;;;5112230;28;20097;-63
2023/10/05 13:07:57;;;;;;;10.88;2.80;;;;;;;;;;5108822;28;20402;-64
2023/10/05 13:10:26;;;;;;;12.32;3.25;;;;;;;;;;5113333;28;20409;-64
2023/10/05 13:12:55;;;;;;;10.15;3.20;;;;;;;;;;5112896;28;20034;-63
2023/10/05 13:15:24;;;;;;;10.27;3.22;;;;;;;;;;5112888;28;20111;-62
2023/10/05 13:17:49;;;;;;;9.48;2.78;;;;;;;;;;5108772;28;20419;-63
2023/10/05 13:20:14;;;;;;;10.23;3.08;;;;;;;;;;5112812;28;20023;-63
2023/10/05 13:22:44;;;;;;;12.82;3.50;;;;;;;;;;5112371;28;20023;-63
2023/10/05 13:25:09;;;;;;;11.63;3.53;;;;;;;;;;5112446;28;20023;-65
2023/10/05 13:27:36;;;;;;;9.82;2.75;;;;;;;;;;5112226;28;20023;-65
2023/10/05 13:30:01;;;;;;;9.63;3.00;;;;;;;;;;5112719;28;20019;-64
2023/10/05 13:32:28;;;;;;;9.13;2.83;;;;;;;;;;5112461;28;20015;-64
2023/10/05 13:34:53;;;;;;;10.13;3.30;;;;;;;;;;5113019;28;20456;-63
2023/10/05 13:37:19;;;;;;;11.23;3.30;;;;;;;;;;5112714;28;20420;-64
2023/10/05 13:39:45;;;;;;;9.77;2.83;;;;;;;;;;5112767;28;20523;-63
2023/10/05 13:42:11;;;;;;;9.25;2.53;;;;;;;;;;5112738;28;20092;-64
2023/10/05 13:44:36;;;;;;;7.75;2.33;;;;;;;;;;5112444;28;20076;-64
2023/10/05 13:47:02;;;;;;;7.00;2.22;;;;;;;;;;5112867;28;20031;-64
2023/10/05 13:49:30;;;;;;;6.70;2.10;;;;;;;;;;5114595;28;20077;-63
2023/10/05 13:51:57;;;;;;;6.60;1.85;;;;;;;;;;5116998;28;20069;-64
2023/10/05 13:54:23;;;;;;;7.32;2.00;;;;;;;;;;5116860;28;20383;-63
2023/10/05 13:56:49;;;;;;;10.70;2.40;;;;;;;;;;5116536;28;20481;-63
2023/10/05 13:59:26;;;;;;;6.95;2.35;;;;;;;;;;5116797;28;20051;-64
2023/10/05 14:01:52;;;;;;;8.38;2.33;;;;;;;;;;5113520;28;20020;-64
2023/10/05 14:04:23;;;;;;;7.75;2.40;;;;;;;;;;5115955;28;20047;-65
2023/10/05 14:06:49;;;;;;;7.85;1.77;;;;;;;;;;5107928;28;20460;-64
2023/10/05 14:09:16;;;;;;;7.45;2.53;;;;;;;;;;5115771;28;20087;-64
2023/10/05 14:11:41;;;;;;;9.10;2.45;;;;;;;;;;5115740;28;20026;-63
2023/10/05 14:14:07;;;;;;;9.68;2.45;;;;;;;;;;5116143;28;20459;-65
2023/10/05 14:19:18;;;;;;;7.30;2.55;;;;;;;;;;5115741;28;20052;-63
2023/10/05 14:21:43;;;;;;;12.05;2.70;;;;;;;;;;5114740;28;20027;-63
2023/10/05 14:24:09;;;;;;;11.13;2.90;;;;;;;;;;5115169;28;20065;-63
2023/10/05 14:26:36;;;;;;;9.82;2.92;;;;;;;;;;5115529;28;20012;-64
2023/10/05 14:29:01;;;;;;;9.38;2.80;;;;;;;;;;5115254;28;20407;-64
2023/10/05 14:31:29;;;;;;;12.45;3.67;;;;;;;;;;5115091;28;20016;-65
2023/10/05 14:33:54;;;;;;;11.98;2.70;;;;;;;;;;5103774;28;20024;-64
2023/10/05 14:36:20;;;;;;;10.75;3.47;;;;;;;;;;5107258;28;20030;-66
2023/10/05 14:38:47;;;;;;;11.23;3.13;;;;;;;;;;5104526;28;20129;-66
2023/10/05 14:41:14;;;;;;;15.63;4.00;;;;;;;;;;5095037;28;20103;-66
2023/10/05 14:43:44;;;;;;;14.55;4.22;;;;;;;;;;5107760;28;20019;-65
2023/10/05 14:46:10;;;;;;;18.40;4.53;;;;;;;;;;5107812;28;20016;-66
2023/10/05 14:48:40;;;;;;;18.38;4.30;;;;;;;;;;5096052;28;20480;-66
2023/10/05 14:51:10;;;;;;;12.07;3.75;;;;;;;;;;5108790;28;20099;-66
2023/10/05 14:53:38;;;;;;;14.43;4.32;;;;;;;;;;5104592;28;20103;-67
2023/10/05 14:56:03;;;;;;;11.85;3.58;;;;;;;;;;5114461;28;20099;-67
2023/10/05 14:58:31;;;;;;;9.48;3.28;;;;;;;;;;5098788;28;20027;-67